International Virtual Aviation Organisation

Russian Federation and Kazakhstan MCD

 

Карточка аэропорта USTR

Внимание!
Информация на этой странице в стадии наполнения.
Если вы не увидели какой-то информации, или заметили неточность - пожалуйста сообщите нам!
Спасибо!
Команда RU-STAFF
Название аэропортаРощино
Название аэропорта (англ.)Roshschino
Превышение378 ft. (115.2 m.)
Координаты57°10.098', 65°19.002'
Высота перехода700m
Эшелон переходаFL040
Коды ответчика5101-5137
Зона ОрВДТюмень РПИ (USTV)
Данные METARUSTR 270330Z 10002MPS 2800 -SN BR OVC011 M08/M10 Q1029 R21/450255 R12/450255 TEMPO 2100 -SN OVC007 OVC015 RMK QFE763/1017
Проноз погоды (TAF)USTR 270141Z 2703/2803 14004G10MPS 5000 -SHSN OVC007 BKN015CB TEMPO 2703/2709 2100 -SHSN OVC005 BKN015CB BECMG 2705/2706 09004G12MPS BECMG 2712/2713 09003G08MPS TEMPO 2717/2724 1500 SHSN OVC005 BKN015CB
NOTAMshow/hide NOTAM
AWOS   TABLE

Информация о ВПП

ВПП Длина ВПП (м.) Покрытие Курс ВПП Частота ILS
033003Асфальтобетон34108.3
122704Асфальтобетон121 
213003Асфальтобетон214110.7
302704Асфальтобетон301 

Диспетчерские позиции

Позывной Наименование органа УВД Частота
USTR_GNDТюмень-Руление119.000
USTR_TWRТюмень-Старт118.200
USTR_APPТюмень-Подход126.100



Спутниковое изображение